Terminal Aerodrome Forecast
Issued by NWS Sterling, VA

Current Version | Previous Version | Graphics & Text | Print | Product List | Glossary On
Versions: 1 2 3 4 5 6 7 8 9 10 11 12 13 14 15 16 17 18 19 20 21 22 23
282
FTUS41 KLWX 261734
TAFIAD
TAF
KIAD 261734Z 2618/2724 29008G18KT P6SM FEW050
     FM262100 29009KT P6SM FEW250
     FM270000 30004KT P6SM SKC
     FM271000 00000KT P6SM BKN090
     FM271800 19006KT P6SM OVC070=

USA.gov is the U.S. government's official web portal to all federal, state and local government web resources and services.